createdAt,value
2022-10-18T00:02:20.747Z,101545.41
2022-10-18T00:04:50.348Z,101543.63
2022-10-18T00:07:18.864Z,101548.94
2022-10-18T00:09:47.374Z,101541.81
2022-10-18T00:12:16.110Z,101541.81
2022-10-18T00:14:44.620Z,101550.69
2022-10-18T00:17:12.804Z,101545.28
2022-10-18T00:19:40.976Z,101548.81
2022-10-18T00:22:10.562Z,101546.16
2022-10-18T00:24:39.084Z,101554.13
2022-10-18T00:27:07.640Z,101550.69
2022-10-18T00:29:36.270Z,101556.09
2022-10-18T00:32:04.908Z,101551.84
2022-10-18T00:34:33.411Z,101551.91
2022-10-18T00:37:01.923Z,101552.81
2022-10-18T00:39:31.553Z,101548.50
2022-10-18T00:41:59.804Z,101537.09
2022-10-18T00:45:07.349Z,101529.25
2022-10-18T00:47:36.810Z,101536.38
2022-10-18T00:50:08.585Z,101536.50
2022-10-18T00:52:41.598Z,101524.16
2022-10-18T00:55:12.414Z,101527.72
2022-10-18T00:57:44.328Z,101529.59
2022-10-18T01:00:15.017Z,101529.66
2022-10-18T01:02:46.332Z,101528.84
2022-10-18T01:05:16.878Z,101523.59
2022-10-18T01:08:16.091Z,101522.78
2022-10-18T01:10:56.830Z,101519.28
2022-10-18T01:13:41.509Z,101514.94
2022-10-18T01:16:21.158Z,101514.28
2022-10-18T01:18:56.088Z,101514.38
2022-10-18T01:21:39.164Z,101524.22
2022-10-18T01:25:04.641Z,101517.22
2022-10-18T01:27:50.693Z,101514.63
2022-10-18T01:30:47.244Z,101509.41
2022-10-18T01:33:29.263Z,101513.03
2022-10-18T01:36:05.396Z,101513.03
2022-10-18T01:38:36.933Z,101506.00
2022-10-18T01:41:11.745Z,101505.16
2022-10-18T01:43:45.296Z,101497.25
2022-10-18T01:46:21.121Z,101493.78
2022-10-18T01:48:50.148Z,101495.56
2022-10-18T01:51:21.085Z,101503.53
2022-10-18T01:53:49.625Z,101493.78
2022-10-18T01:56:43.816Z,101497.38
2022-10-18T01:59:34.419Z,101495.53
2022-10-18T02:02:15.594Z,101492.88
2022-10-18T02:04:52.085Z,101490.22
2022-10-18T02:07:30.600Z,101491.13
2022-10-18T02:10:09.703Z,101496.44
2022-10-18T02:12:41.395Z,101491.19
2022-10-18T02:15:14.190Z,101492.19
2022-10-18T02:17:46.453Z,101490.59
2022-10-18T02:20:19.017Z,101483.66
2022-10-18T02:22:50.485Z,101485.63
2022-10-18T02:25:23.899Z,101480.53
2022-10-18T02:27:56.260Z,101477.22
2022-10-18T02:30:32.411Z,101479.06
2022-10-18T02:33:10.587Z,101479.13
2022-10-18T02:35:45.932Z,101472.03
2022-10-18T02:38:17.723Z,101472.78
2022-10-18T02:40:45.927Z,101477.09
2022-10-18T02:43:15.750Z,101480.50
2022-10-18T02:45:44.736Z,101482.16
2022-10-18T02:48:14.336Z,101475.88
2022-10-18T02:50:42.909Z,101488.16
2022-10-18T02:53:11.588Z,101484.50
2022-10-18T02:55:40.155Z,101489.75
2022-10-18T02:58:08.637Z,101487.94
2022-10-18T03:00:37.285Z,101492.28
2022-10-18T03:03:05.590Z,101498.34
2022-10-18T03:05:35.400Z,101497.47
2022-10-18T03:08:03.997Z,101509.03
2022-10-18T03:10:32.700Z,101513.50
2022-10-18T03:13:01.392Z,101529.53
2022-10-18T03:15:29.890Z,101534.97
2022-10-18T03:17:58.338Z,101552.81
2022-10-18T03:20:26.719Z,101558.34
2022-10-18T03:22:56.631Z,101546.16
2022-10-18T03:25:25.188Z,101538.22
2022-10-18T03:27:53.671Z,101537.38
2022-10-18T03:30:22.206Z,101546.25
2022-10-18T03:32:50.388Z,101544.50
2022-10-18T03:35:18.823Z,101546.25
2022-10-18T03:37:47.172Z,101555.94
2022-10-18T03:40:17.019Z,101556.88
2022-10-18T03:42:45.623Z,101557.66
2022-10-18T03:45:14.222Z,101554.16
2022-10-18T03:47:42.526Z,101551.44
2022-10-18T03:50:11.173Z,101546.03
2022-10-18T03:52:39.763Z,101538.97
2022-10-18T03:55:09.123Z,101549.47
2022-10-18T03:57:38.868Z,101549.47
2022-10-18T04:00:09.467Z,101547.75
2022-10-18T04:02:40.726Z,101554.00
2022-10-18T04:05:10.207Z,101554.88
2022-10-18T04:07:38.657Z,101554.88
2022-10-18T04:10:08.444Z,101567.25
2022-10-18T04:12:38.319Z,101563.66
2022-10-18T04:15:08.077Z,101563.66
2022-10-18T04:17:36.253Z,101565.38
2022-10-18T04:20:04.772Z,101565.38
2022-10-18T04:22:33.254Z,101577.72
2022-10-18T04:25:01.449Z,101580.44
2022-10-18T04:27:30.085Z,101572.53
2022-10-18T04:29:59.768Z,101569.81
2022-10-18T04:32:29.349Z,101568.97
2022-10-18T04:34:57.860Z,101568.97
2022-10-18T04:37:26.345Z,101572.53
2022-10-18T04:39:54.849Z,101569.06
2022-10-18T04:42:23.154Z,101569.16
2022-10-18T04:44:51.416Z,101581.50
2022-10-18T04:47:21.232Z,101572.78
2022-10-18T04:49:49.746Z,101559.63
2022-10-18T04:52:18.228Z,101567.59
2022-10-18T04:54:46.943Z,101564.97
2022-10-18T04:57:15.209Z,101564.13
2022-10-18T04:59:43.413Z,101557.09
2022-10-18T05:02:11.969Z,101561.53
2022-10-18T05:04:41.524Z,101564.22
2022-10-18T05:07:10.134Z,101564.22
2022-10-18T05:09:38.357Z,101564.28
2022-10-18T05:12:07.071Z,101571.34
2022-10-18T05:14:35.645Z,101564.28
2022-10-18T05:17:04.195Z,101567.81
2022-10-18T05:19:32.726Z,101562.63
2022-10-18T05:22:02.348Z,101562.72
2022-10-18T05:24:30.919Z,101556.59
2022-10-18T05:26:59.274Z,101571.56
2022-10-18T05:32:01.708Z,101553.84
2022-10-18T05:34:31.973Z,101556.66
2022-10-18T05:37:02.218Z,101562.94
2022-10-18T05:39:30.752Z,101561.19
2022-10-18T05:41:59.867Z,101550.59
2022-10-18T05:44:28.424Z,101537.44
2022-10-18T05:46:56.655Z,101545.41
2022-10-18T05:49:25.181Z,101547.16
2022-10-18T05:51:53.630Z,101540.13
2022-10-18T05:54:23.270Z,101542.72
2022-10-18T05:56:51.501Z,101549.75
2022-10-18T05:59:19.999Z,101548.78
2022-10-18T06:01:48.489Z,101566.38
2022-10-18T06:04:17.923Z,101554.13
2022-10-18T06:06:46.453Z,101559.47
2022-10-18T06:09:15.059Z,101559.53
2022-10-18T06:11:44.661Z,101562.25
2022-10-18T06:14:13.348Z,101564.97
2022-10-18T06:16:41.908Z,101564.97
2022-10-18T06:19:10.450Z,101572.91
2022-10-18T06:21:38.682Z,101566.69
2022-10-18T06:24:07.829Z,101563.13
2022-10-18T06:26:36.348Z,101566.63
2022-10-18T06:29:06.160Z,101570.84
2022-10-18T06:31:34.429Z,101573.38
2022-10-18T06:34:02.908Z,101562.72
2022-10-18T06:36:31.412Z,101567.00
2022-10-18T06:39:00.022Z,101570.38
2022-10-18T06:41:28.642Z,101572.88
2022-10-18T06:44:08.766Z,101572.81
2022-10-18T06:46:38.505Z,101579.88
2022-10-18T06:49:07.025Z,101572.66
2022-10-18T06:51:35.589Z,101584.97
2022-10-18T06:54:17.633Z,101594.66
2022-10-18T06:56:47.314Z,101609.66
2022-10-18T06:59:16.011Z,101617.66
2022-10-18T07:01:45.633Z,101617.72
2022-10-18T07:04:14.158Z,101620.38
2022-10-18T07:06:42.701Z,101623.03
2022-10-18T07:09:11.316Z,101635.34
2022-10-18T07:11:40.195Z,101641.59
2022-10-18T07:14:12.543Z,101632.69
2022-10-18T07:16:45.310Z,101636.28
2022-10-18T07:19:14.881Z,101632.69
2022-10-18T07:21:43.363Z,101630.88
2022-10-18T07:24:11.841Z,101630.88
2022-10-18T07:26:40.033Z,101636.06
2022-10-18T07:29:11.595Z,101630.66
2022-10-18T07:31:40.876Z,101638.38
2022-10-18T07:34:14.388Z,101639.19
2022-10-18T07:36:43.149Z,101637.34
2022-10-18T07:39:11.647Z,101635.34
2022-10-18T07:41:40.264Z,101649.91
2022-10-18T07:44:09.021Z,101643.34
2022-10-18T07:46:37.337Z,101650.97
2022-10-18T07:49:05.663Z,101648.94
2022-10-18T07:51:36.032Z,101651.44
2022-10-18T07:54:04.703Z,101639.78
2022-10-18T07:56:33.272Z,101651.09
2022-10-18T07:59:01.837Z,101650.00
2022-10-18T08:01:30.485Z,101646.19
2022-10-18T08:04:06.110Z,101651.84
2022-10-18T08:06:36.703Z,101656.69
2022-10-18T08:09:05.619Z,101652.72
2022-10-18T08:11:34.162Z,101654.06
2022-10-18T08:14:02.659Z,101653.69
2022-10-18T08:19:01.828Z,101667.66
2022-10-18T08:21:30.324Z,101656.75
2022-10-18T08:23:59.920Z,101659.69
2022-10-18T08:26:28.421Z,101666.91
2022-10-18T08:29:17.771Z,101665.16
2022-10-18T08:31:45.264Z,101666.56
2022-10-18T08:34:18.628Z,101669.06
2022-10-18T08:36:48.286Z,101677.44
2022-10-18T08:39:17.865Z,101683.16
2022-10-18T08:42:15.269Z,101678.41
2022-10-18T08:44:47.298Z,101681.66
2022-10-18T08:47:19.799Z,101675.53
2022-10-18T08:49:52.595Z,101671.47
2022-10-18T08:52:33.418Z,101673.22
2022-10-18T08:55:09.901Z,101668.03
2022-10-18T08:57:38.457Z,101657.13
2022-10-18T09:00:16.006Z,101655.44
2022-10-18T09:03:13.781Z,101653.03
2022-10-18T09:05:50.150Z,101651.97
2022-10-18T09:08:43.181Z,101656.03
2022-10-18T09:11:28.420Z,101654.47
2022-10-18T09:14:53.172Z,101648.84
2022-10-18T09:17:33.086Z,101657.03
2022-10-18T09:20:22.973Z,101661.56
2022-10-18T09:22:57.780Z,101667.22
2022-10-18T09:25:35.331Z,101667.75
2022-10-18T09:28:20.267Z,101663.41
2022-10-18T09:30:59.782Z,101667.88
2022-10-18T09:33:44.876Z,101671.84
2022-10-18T09:36:20.292Z,101668.75
2022-10-18T09:38:53.300Z,101673.41
2022-10-18T09:41:26.813Z,101676.81
2022-10-18T09:44:02.361Z,101689.06
2022-10-18T09:46:35.029Z,101690.53
2022-10-18T09:49:06.886Z,101695.91
2022-10-18T09:51:38.022Z,101696.31
2022-10-18T09:54:22.787Z,101687.50
2022-10-18T09:56:58.442Z,101680.03
2022-10-18T09:59:37.513Z,101682.47
2022-10-18T10:02:07.008Z,101677.91
2022-10-18T10:04:35.288Z,101691.13
2022-10-18T10:07:08.090Z,101699.63
2022-10-18T10:09:45.054Z,101702.13
2022-10-18T10:12:29.023Z,101699.91
2022-10-18T10:15:18.783Z,101700.75
2022-10-18T10:17:55.992Z,101703.03
2022-10-18T10:20:27.901Z,101711.81
2022-10-18T10:23:05.974Z,101702.22
2022-10-18T10:25:37.972Z,101705.00
2022-10-18T10:28:14.223Z,101709.84
2022-10-18T10:30:43.937Z,101709.59
2022-10-18T10:33:35.148Z,101710.22
2022-10-18T10:36:06.884Z,101711.63
2022-10-18T10:38:35.157Z,101709.41
2022-10-18T10:41:03.416Z,101709.75
2022-10-18T10:43:39.673Z,101712.44
2022-10-18T10:46:13.322Z,101715.88
2022-10-18T10:48:49.366Z,101709.41
2022-10-18T10:51:29.764Z,101701.09
2022-10-18T10:54:03.196Z,101705.22
2022-10-18T10:56:34.468Z,101698.84
2022-10-18T10:59:14.147Z,101703.84
2022-10-18T11:01:43.933Z,101708.63
2022-10-18T11:04:29.102Z,101708.63
2022-10-18T11:07:07.810Z,101710.91
2022-10-18T11:10:02.452Z,101717.13
2022-10-18T11:12:35.534Z,101716.09
2022-10-18T11:15:18.383Z,101720.56
2022-10-18T11:18:02.681Z,101719.03
2022-10-18T11:20:36.358Z,101716.59
2022-10-18T11:23:09.401Z,101712.59
2022-10-18T11:25:52.254Z,101715.78
2022-10-18T11:28:36.762Z,101719.00
2022-10-18T11:31:16.183Z,101721.69
2022-10-18T11:34:10.580Z,101718.09
2022-10-18T11:36:57.847Z,101712.75
2022-10-18T11:39:50.827Z,101719.88
2022-10-18T11:42:30.986Z,101721.50
2022-10-18T11:45:16.111Z,101723.97
2022-10-18T11:47:52.270Z,101717.47
2022-10-18T11:50:35.427Z,101718.84
2022-10-18T11:53:21.171Z,101715.41
2022-10-18T11:56:04.833Z,101711.00
2022-10-18T11:58:57.961Z,101716.44
2022-10-18T12:01:34.973Z,101719.16
2022-10-18T12:04:10.304Z,101722.63
2022-10-18T12:06:42.672Z,101707.84
2022-10-18T12:09:24.501Z,101705.34
2022-10-18T12:11:59.498Z,101703.41
2022-10-18T12:14:31.853Z,101704.91
2022-10-18T12:17:39.639Z,101701.69
2022-10-18T12:19:58.491Z,101687.69
2022-10-18T12:22:35.653Z,101689.84
2022-10-18T12:25:04.193Z,101686.16
2022-10-18T12:27:41.966Z,101697.13
2022-10-18T12:30:24.357Z,101687.06
2022-10-18T12:33:26.665Z,101689.66
2022-10-18T12:36:07.168Z,101701.34
2022-10-18T12:38:40.609Z,101686.50
2022-10-18T12:41:17.732Z,101694.56
2022-10-18T12:43:54.115Z,101687.88
2022-10-18T12:46:23.113Z,101680.03
2022-10-18T12:49:04.806Z,101690.75
2022-10-18T12:51:33.478Z,101685.78
2022-10-18T12:54:13.161Z,101686.34
2022-10-18T12:56:43.024Z,101695.28
2022-10-18T12:59:42.059Z,101679.53
2022-10-18T13:02:27.427Z,101684.88
2022-10-18T13:05:00.376Z,101683.53
2022-10-18T13:07:43.142Z,101680.06
2022-10-18T13:10:44.933Z,101686.97
2022-10-18T13:13:50.543Z,101672.44
2022-10-18T13:16:39.960Z,101675.31
2022-10-18T13:19:23.160Z,101675.34
2022-10-18T13:22:11.791Z,101677.41
2022-10-18T13:24:45.282Z,101677.63
2022-10-18T13:27:35.965Z,101678.47
2022-10-18T13:30:47.964Z,101680.94
2022-10-18T13:33:34.087Z,101679.91
2022-10-18T13:36:06.243Z,101673.72
2022-10-18T13:38:48.430Z,101678.66
2022-10-18T13:41:20.412Z,101676.41
2022-10-18T13:44:26.009Z,101675.88
2022-10-18T13:47:35.197Z,101680.97
2022-10-18T13:50:37.369Z,101686.47
2022-10-18T13:53:44.050Z,101675.78
2022-10-18T13:56:37.744Z,101682.94
2022-10-18T13:59:32.789Z,101677.72
2022-10-18T14:02:59.651Z,101679.75
2022-10-18T14:05:52.083Z,101689.59
2022-10-18T14:08:26.254Z,101687.69
2022-10-18T14:11:04.158Z,101684.00
2022-10-18T14:13:46.425Z,101689.34
2022-10-18T14:16:36.057Z,101687.72
2022-10-18T14:19:18.096Z,101683.94
2022-10-18T14:21:56.679Z,101682.56
2022-10-18T14:24:27.528Z,101681.03
2022-10-18T14:27:18.936Z,101686.47
2022-10-18T14:29:47.704Z,101680.53
2022-10-18T14:32:28.010Z,101685.97
2022-10-18T14:35:27.229Z,101684.50
2022-10-18T14:37:47.803Z,101691.38
2022-10-18T14:40:37.898Z,101683.88
2022-10-18T14:43:12.531Z,101690.78
2022-10-18T14:45:41.816Z,101692.34
2022-10-18T14:48:17.276Z,101701.69
2022-10-18T14:50:50.076Z,101694.84
2022-10-18T14:53:22.027Z,101700.41
2022-10-18T14:56:00.727Z,101690.06
2022-10-18T14:58:29.504Z,101698.38
2022-10-18T15:00:58.381Z,101697.75
2022-10-18T15:03:28.548Z,101696.09
2022-10-18T15:06:00.731Z,101694.56
2022-10-18T15:08:37.151Z,101701.97
2022-10-18T15:11:10.499Z,101697.81
2022-10-18T15:13:50.409Z,101705.19
2022-10-18T15:16:20.180Z,101711.75
2022-10-18T15:19:03.899Z,101703.13
2022-10-18T15:21:33.136Z,101705.19
2022-10-18T15:24:22.391Z,101708.97
2022-10-18T15:26:52.769Z,101709.13
2022-10-18T15:29:24.707Z,101708.44
2022-10-18T15:31:53.526Z,101711.19
2022-10-18T15:34:25.822Z,101705.16
2022-10-18T15:36:56.772Z,101706.28
2022-10-18T15:39:28.137Z,101700.81
2022-10-18T15:41:58.174Z,101713.06
2022-10-18T15:44:31.589Z,101716.38
2022-10-18T15:47:20.599Z,101709.84
2022-10-18T15:49:56.893Z,101711.19
2022-10-18T15:52:39.178Z,101711.63
2022-10-18T15:55:58.333Z,101704.13
2022-10-18T15:58:31.895Z,101714.53
2022-10-18T16:01:04.323Z,101712.31
2022-10-18T16:03:35.550Z,101715.41
2022-10-18T16:06:09.935Z,101728.22
2022-10-18T16:08:42.313Z,101720.69
2022-10-18T16:11:16.408Z,101717.50
2022-10-18T16:13:45.311Z,101713.25
2022-10-18T16:16:17.984Z,101715.97
2022-10-18T16:18:46.634Z,101714.25
2022-10-18T16:21:20.949Z,101716.28
2022-10-18T16:23:50.287Z,101721.81
2022-10-18T16:26:20.464Z,101711.31
2022-10-18T16:28:50.242Z,101722.16
2022-10-18T16:31:22.198Z,101721.56
2022-10-18T16:33:51.897Z,101720.03
2022-10-18T16:36:24.226Z,101728.28
2022-10-18T16:38:55.015Z,101724.19
2022-10-18T16:41:23.677Z,101728.13
2022-10-18T16:43:52.274Z,101732.81
2022-10-18T16:46:23.428Z,101738.41
2022-10-18T16:48:52.769Z,101739.63
2022-10-18T16:51:22.476Z,101741.69
2022-10-18T16:53:53.256Z,101753.44
2022-10-18T16:56:25.359Z,101759.06
2022-10-18T16:58:54.687Z,101756.66
2022-10-18T17:01:25.146Z,101760.50
2022-10-18T17:03:55.258Z,101757.25
2022-10-18T17:06:27.399Z,101761.84
2022-10-18T17:08:56.939Z,101762.84
2022-10-18T17:11:28.275Z,101757.63
2022-10-18T17:13:58.176Z,101761.38
2022-10-18T17:19:06.279Z,101763.56
2022-10-18T17:21:36.207Z,101769.00
2022-10-18T17:24:06.144Z,101755.84
2022-10-18T17:26:34.817Z,101762.09
2022-10-18T17:29:08.095Z,101765.66
2022-10-18T17:31:36.857Z,101760.47
2022-10-18T17:34:05.310Z,101768.69
2022-10-18T17:36:35.768Z,101771.47
2022-10-18T17:39:04.823Z,101767.00
2022-10-18T17:41:33.326Z,101775.84
2022-10-18T17:44:04.019Z,101772.31
2022-10-18T17:46:32.524Z,101776.78
2022-10-18T17:49:01.018Z,101782.94
2022-10-18T17:51:29.602Z,101777.63
2022-10-18T17:53:59.117Z,101782.09
2022-10-18T17:56:32.853Z,101780.38
2022-10-18T17:59:01.232Z,101776.06
2022-10-18T18:01:29.721Z,101781.50
2022-10-18T18:03:59.985Z,101785.22
2022-10-18T18:06:31.979Z,101780.97
2022-10-18T18:09:06.876Z,101782.06
2022-10-18T18:11:35.512Z,101784.88
2022-10-18T18:14:08.849Z,101781.53
2022-10-18T18:16:38.676Z,101788.78
2022-10-18T18:19:09.804Z,101784.50
2022-10-18T18:21:39.341Z,101794.44
2022-10-18T18:24:10.795Z,101790.13
2022-10-18T18:26:40.980Z,101789.38
2022-10-18T18:29:09.524Z,101779.69
2022-10-18T18:31:40.259Z,101784.25
2022-10-18T18:34:11.392Z,101776.44
2022-10-18T18:36:40.227Z,101791.72
2022-10-18T18:39:17.437Z,101791.88
2022-10-18T18:41:46.048Z,101789.44
2022-10-18T18:44:14.527Z,101786.03
2022-10-18T18:46:42.802Z,101779.22
2022-10-18T18:49:12.535Z,101783.81
2022-10-18T18:51:41.755Z,101779.53
2022-10-18T18:54:13.811Z,101777.00
2022-10-18T18:56:43.520Z,101780.66
2022-10-18T18:59:15.416Z,101781.59
2022-10-18T19:01:44.235Z,101782.72
2022-10-18T19:04:12.641Z,101785.44
2022-10-18T19:06:43.333Z,101777.59
2022-10-18T19:09:19.407Z,101780.34
2022-10-18T19:11:49.358Z,101778.78
2022-10-18T19:14:17.817Z,101781.47
2022-10-18T19:16:50.417Z,101789.53
2022-10-18T19:19:20.788Z,101778.09
2022-10-18T19:21:52.291Z,101774.66
2022-10-18T19:24:23.599Z,101787.09
2022-10-18T19:26:53.940Z,101785.34
2022-10-18T19:29:25.197Z,101781.88
2022-10-18T19:31:56.669Z,101781.97
2022-10-18T19:34:27.408Z,101782.94
2022-10-18T19:36:56.306Z,101790.97
2022-10-18T19:39:27.966Z,101783.91
2022-10-18T19:41:59.006Z,101787.47
2022-10-18T19:44:31.848Z,101797.22
2022-10-18T19:47:00.612Z,101791.13
2022-10-18T19:49:29.142Z,101782.34
2022-10-18T19:51:58.258Z,101782.53
2022-10-18T19:54:28.192Z,101784.47
2022-10-18T19:56:56.754Z,101782.84
2022-10-18T19:59:25.876Z,101787.38
2022-10-18T20:01:54.502Z,101788.31
2022-10-18T20:04:23.006Z,101789.31
2022-10-18T20:06:52.340Z,101796.47
2022-10-18T20:09:22.654Z,101795.63
2022-10-18T20:11:52.240Z,101794.75
2022-10-18T20:14:21.153Z,101796.56
2022-10-18T20:16:49.854Z,101791.34
2022-10-18T20:19:18.367Z,101795.81
2022-10-18T20:21:46.865Z,101794.09
2022-10-18T20:24:15.426Z,101799.38
2022-10-18T20:26:44.100Z,101790.53
2022-10-18T20:29:13.882Z,101795.72
2022-10-18T20:31:42.198Z,101794.88
2022-10-18T20:34:13.265Z,101789.56
2022-10-18T20:36:42.872Z,101790.44
2022-10-18T20:39:11.393Z,101792.16
2022-10-18T20:41:41.666Z,101787.72
2022-10-18T20:44:16.622Z,101781.56
2022-10-18T20:46:45.991Z,101772.81
2022-10-18T20:49:16.937Z,101778.13
2022-10-18T20:51:45.775Z,101769.34
2022-10-18T20:54:14.392Z,101769.34
2022-10-18T20:56:42.869Z,101772.91
2022-10-18T20:59:11.506Z,101775.59
2022-10-18T21:01:41.182Z,101772.97
2022-10-18T21:04:11.340Z,101769.53
2022-10-18T21:06:42.149Z,101774.84
2022-10-18T21:09:13.665Z,101767.84
2022-10-18T21:11:44.800Z,101764.41
2022-10-18T21:14:15.574Z,101768.88
2022-10-18T21:16:45.733Z,101768.03
2022-10-18T21:19:17.134Z,101774.31
2022-10-18T21:21:49.509Z,101767.34
2022-10-18T21:24:19.325Z,101759.50
2022-10-18T21:26:48.745Z,101755.16
2022-10-18T21:29:21.975Z,101759.66
2022-10-18T21:31:57.984Z,101759.75
2022-10-18T21:34:27.280Z,101746.72
2022-10-18T21:36:55.523Z,101747.56
2022-10-18T21:39:25.276Z,101753.81
2022-10-18T21:41:53.528Z,101758.28
2022-10-18T21:44:22.086Z,101749.50
2022-10-18T21:46:51.727Z,101755.78
2022-10-18T21:49:20.284Z,101762.03
2022-10-18T21:51:48.766Z,101753.44
2022-10-18T21:54:18.311Z,101753.59
2022-10-18T21:56:46.542Z,101750.25
2022-10-18T21:59:15.528Z,101754.75
2022-10-18T22:01:45.065Z,101756.59
2022-10-18T22:04:23.588Z,101746.16
2022-10-18T22:06:52.410Z,101745.41
2022-10-18T22:09:22.268Z,101743.75
2022-10-18T22:11:53.994Z,101746.50
2022-10-18T22:14:22.710Z,101752.81
2022-10-18T22:16:51.715Z,101754.75
2022-10-18T22:19:21.391Z,101743.44
2022-10-18T22:21:50.063Z,101747.13
2022-10-18T22:24:19.133Z,101747.25
2022-10-18T22:26:47.746Z,101742.03
2022-10-18T22:29:19.670Z,101745.63
2022-10-18T22:31:50.437Z,101750.03
2022-10-18T22:34:22.512Z,101750.06
2022-10-18T22:36:51.621Z,101751.91
2022-10-18T22:39:20.346Z,101746.69
2022-10-18T22:41:52.051Z,101745.84
2022-10-18T22:44:20.599Z,101737.94
2022-10-18T22:46:49.199Z,101742.22
2022-10-18T22:49:17.618Z,101736.84
2022-10-18T22:51:47.175Z,101741.94
2022-10-18T22:54:15.796Z,101744.41
2022-10-18T22:56:44.101Z,101746.91
2022-10-18T22:59:12.680Z,101742.34
2022-10-18T23:01:40.853Z,101750.25
2022-10-18T23:04:09.245Z,101748.38
2022-10-18T23:06:38.025Z,101755.31
2022-10-18T23:09:11.193Z,101752.59
2022-10-18T23:11:39.609Z,101752.59
2022-10-18T23:14:08.455Z,101752.59
2022-10-18T23:16:37.068Z,101752.59
2022-10-18T23:19:05.599Z,101750.03
2022-10-18T23:21:35.308Z,101752.81
2022-10-18T23:24:03.614Z,101756.47
2022-10-18T23:26:33.875Z,101752.19
2022-10-18T23:29:02.447Z,101750.50
2022-10-18T23:31:34.021Z,101751.50
2022-10-18T23:34:06.043Z,101756.00
2022-10-18T23:36:35.345Z,101757.91
2022-10-18T23:39:04.330Z,101748.25
2022-10-18T23:41:34.128Z,101753.63
2022-10-18T23:44:02.734Z,101751.03
2022-10-18T23:46:31.287Z,101754.63
2022-10-18T23:48:59.851Z,101753.78
2022-10-18T23:51:28.398Z,101758.28
2022-10-18T23:53:56.899Z,101753.94
2022-10-18T23:56:25.093Z,101755.75
2022-10-18T23:58:54.697Z,101756.66
